sensor_id;sensor_type;location;lat;lon;timestamp;P1;durP1;ratioP1;P2;durP2;ratioP2
74465;SDS011;62916;50.044;15.938;2023-02-03T00:01:42;1.40;;;0.50;;
74465;SDS011;62916;50.044;15.938;2023-02-03T00:04:13;0.80;;;0.80;;
74465;SDS011;62916;50.044;15.938;2023-02-03T00:06:44;1.10;;;0.60;;
74465;SDS011;62916;50.044;15.938;2023-02-03T00:09:17;0.70;;;0.40;;
74465;SDS011;62916;50.044;15.938;2023-02-03T00:11:49;1.50;;;0.60;;
74465;SDS011;62916;50.044;15.938;2023-02-03T00:14:20;1.80;;;0.70;;
74465;SDS011;62916;50.044;15.938;2023-02-03T00:16:50;1.10;;;0.80;;
74465;SDS011;62916;50.044;15.938;2023-02-03T00:19:21;0.90;;;0.40;;
74465;SDS011;62916;50.044;15.938;2023-02-03T00:21:52;1.40;;;0.70;;
74465;SDS011;62916;50.044;15.938;2023-02-03T00:24:23;0.80;;;0.60;;
74465;SDS011;62916;50.044;15.938;2023-02-03T00:26:53;1.00;;;0.50;;
74465;SDS011;62916;50.044;15.938;2023-02-03T00:29:25;1.20;;;0.50;;
74465;SDS011;62916;50.044;15.938;2023-02-03T00:31:55;2.60;;;0.80;;
74465;SDS011;62916;50.044;15.938;2023-02-03T00:34:28;1.50;;;0.60;;
74465;SDS011;62916;50.044;15.938;2023-02-03T00:37:00;0.60;;;0.50;;
74465;SDS011;62916;50.044;15.938;2023-02-03T00:39:31;1.30;;;0.50;;
74465;SDS011;62916;50.044;15.938;2023-02-03T00:42:04;0.80;;;0.40;;
74465;SDS011;62916;50.044;15.938;2023-02-03T00:44:35;0.70;;;0.50;;
74465;SDS011;62916;50.044;15.938;2023-02-03T00:47:05;1.20;;;0.40;;
74465;SDS011;62916;50.044;15.938;2023-02-03T00:49:36;0.70;;;0.50;;
74465;SDS011;62916;50.044;15.938;2023-02-03T00:52:07;0.70;;;0.40;;
74465;SDS011;62916;50.044;15.938;2023-02-03T00:54:38;0.80;;;0.50;;
74465;SDS011;62916;50.044;15.938;2023-02-03T00:57:09;1.50;;;1.10;;
74465;SDS011;62916;50.044;15.938;2023-02-03T00:59:40;1.80;;;0.50;;
74465;SDS011;62916;50.044;15.938;2023-02-03T01:02:11;0.80;;;0.50;;
74465;SDS011;62916;50.044;15.938;2023-02-03T01:04:43;0.80;;;0.60;;
74465;SDS011;62916;50.044;15.938;2023-02-03T01:07:14;1.60;;;0.50;;
74465;SDS011;62916;50.044;15.938;2023-02-03T01:09:45;0.90;;;0.50;;
74465;SDS011;62916;50.044;15.938;2023-02-03T01:12:16;0.90;;;0.40;;
74465;SDS011;62916;50.044;15.938;2023-02-03T01:14:47;1.10;;;0.60;;
74465;SDS011;62916;50.044;15.938;2023-02-03T01:17:18;2.60;;;0.70;;
74465;SDS011;62916;50.044;15.938;2023-02-03T01:19:49;1.10;;;0.60;;
74465;SDS011;62916;50.044;15.938;2023-02-03T01:22:20;0.60;;;0.40;;
74465;SDS011;62916;50.044;15.938;2023-02-03T01:24:51;1.40;;;0.60;;
74465;SDS011;62916;50.044;15.938;2023-02-03T01:27:22;0.80;;;0.60;;
74465;SDS011;62916;50.044;15.938;2023-02-03T01:29:53;0.60;;;0.50;;
74465;SDS011;62916;50.044;15.938;2023-02-03T01:32:24;0.80;;;0.50;;
74465;SDS011;62916;50.044;15.938;2023-02-03T01:34:54;0.50;;;0.50;;
74465;SDS011;62916;50.044;15.938;2023-02-03T01:37:25;0.90;;;0.50;;
74465;SDS011;62916;50.044;15.938;2023-02-03T01:39:56;1.00;;;0.40;;
74465;SDS011;62916;50.044;15.938;2023-02-03T01:42:29;0.80;;;0.80;;
74465;SDS011;62916;50.044;15.938;2023-02-03T01:45:02;0.80;;;0.60;;
74465;SDS011;62916;50.044;15.938;2023-02-03T01:47:33;1.40;;;0.50;;
74465;SDS011;62916;50.044;15.938;2023-02-03T01:50:11;1.10;;;0.40;;
74465;SDS011;62916;50.044;15.938;2023-02-03T01:52:46;1.00;;;0.40;;
74465;SDS011;62916;50.044;15.938;2023-02-03T01:55:22;0.80;;;0.50;;
74465;SDS011;62916;50.044;15.938;2023-02-03T01:57:59;0.50;;;0.40;;
74465;SDS011;62916;50.044;15.938;2023-02-03T02:00:34;1.60;;;0.70;;
74465;SDS011;62916;50.044;15.938;2023-02-03T02:03:07;0.60;;;0.30;;
74465;SDS011;62916;50.044;15.938;2023-02-03T02:05:39;1.20;;;0.70;;
74465;SDS011;62916;50.044;15.938;2023-02-03T02:08:16;0.60;;;0.30;;
74465;SDS011;62916;50.044;15.938;2023-02-03T02:13:19;0.50;;;0.50;;
74465;SDS011;62916;50.044;15.938;2023-02-03T02:15:59;1.00;;;0.50;;
74465;SDS011;62916;50.044;15.938;2023-02-03T02:18:45;2.20;;;0.90;;
74465;SDS011;62916;50.044;15.938;2023-02-03T02:21:38;1.20;;;0.60;;
74465;SDS011;62916;50.044;15.938;2023-02-03T02:27:34;1.30;;;0.60;;
74465;SDS011;62916;50.044;15.938;2023-02-03T02:33:21;0.90;;;0.50;;
74465;SDS011;62916;50.044;15.938;2023-02-03T02:36:03;0.40;;;0.30;;
74465;SDS011;62916;50.044;15.938;2023-02-03T02:38:40;0.60;;;0.50;;
74465;SDS011;62916;50.044;15.938;2023-02-03T02:41:22;1.00;;;0.70;;
74465;SDS011;62916;50.044;15.938;2023-02-03T02:43:58;1.20;;;0.50;;
74465;SDS011;62916;50.044;15.938;2023-02-03T02:46:32;1.00;;;0.50;;
74465;SDS011;62916;50.044;15.938;2023-02-03T02:49:08;1.00;;;0.50;;
74465;SDS011;62916;50.044;15.938;2023-02-03T02:51:44;1.00;;;0.90;;
74465;SDS011;62916;50.044;15.938;2023-02-03T02:54:17;1.00;;;0.60;;
74465;SDS011;62916;50.044;15.938;2023-02-03T02:56:52;0.90;;;0.50;;
74465;SDS011;62916;50.044;15.938;2023-02-03T02:59:27;1.00;;;0.40;;
74465;SDS011;62916;50.044;15.938;2023-02-03T03:01:58;2.00;;;0.60;;
74465;SDS011;62916;50.044;15.938;2023-02-03T03:04:30;0.80;;;0.50;;
74465;SDS011;62916;50.044;15.938;2023-02-03T03:07:03;1.00;;;0.50;;
74465;SDS011;62916;50.044;15.938;2023-02-03T03:09:37;1.50;;;0.70;;
74465;SDS011;62916;50.044;15.938;2023-02-03T03:12:13;0.80;;;0.40;;
74465;SDS011;62916;50.044;15.938;2023-02-03T03:14:48;1.10;;;0.60;;
74465;SDS011;62916;50.044;15.938;2023-02-03T03:17:23;0.70;;;0.50;;
74465;SDS011;62916;50.044;15.938;2023-02-03T03:19:59;1.30;;;0.70;;
74465;SDS011;62916;50.044;15.938;2023-02-03T03:22:35;0.80;;;0.50;;
74465;SDS011;62916;50.044;15.938;2023-02-03T03:25:13;0.90;;;0.60;;
74465;SDS011;62916;50.044;15.938;2023-02-03T03:27:48;0.40;;;0.40;;
74465;SDS011;62916;50.044;15.938;2023-02-03T03:30:23;0.60;;;0.50;;
74465;SDS011;62916;50.044;15.938;2023-02-03T03:32:57;3.40;;;0.60;;
74465;SDS011;62916;50.044;15.938;2023-02-03T03:35:30;2.40;;;0.60;;
74465;SDS011;62916;50.044;15.938;2023-02-03T03:38:08;2.60;;;0.60;;
74465;SDS011;62916;50.044;15.938;2023-02-03T03:40:42;0.90;;;0.50;;
74465;SDS011;62916;50.044;15.938;2023-02-03T03:43:19;1.20;;;0.50;;
74465;SDS011;62916;50.044;15.938;2023-02-03T03:45:53;1.20;;;0.50;;
74465;SDS011;62916;50.044;15.938;2023-02-03T03:48:28;0.50;;;0.40;;
74465;SDS011;62916;50.044;15.938;2023-02-03T03:51:05;0.50;;;0.40;;
74465;SDS011;62916;50.044;15.938;2023-02-03T03:53:40;0.70;;;0.50;;
74465;SDS011;62916;50.044;15.938;2023-02-03T03:56:16;0.90;;;0.50;;
74465;SDS011;62916;50.044;15.938;2023-02-03T03:58:52;0.90;;;0.60;;
74465;SDS011;62916;50.044;15.938;2023-02-03T04:01:24;1.00;;;0.60;;
74465;SDS011;62916;50.044;15.938;2023-02-03T04:03:57;0.50;;;0.30;;
74465;SDS011;62916;50.044;15.938;2023-02-03T04:06:31;0.40;;;0.40;;
74465;SDS011;62916;50.044;15.938;2023-02-03T04:09:02;0.70;;;0.50;;
74465;SDS011;62916;50.044;15.938;2023-02-03T04:11:33;0.50;;;0.30;;
74465;SDS011;62916;50.044;15.938;2023-02-03T04:14:21;0.80;;;0.40;;
74465;SDS011;62916;50.044;15.938;2023-02-03T04:16:52;0.50;;;0.50;;
74465;SDS011;62916;50.044;15.938;2023-02-03T04:19:23;1.20;;;0.40;;
74465;SDS011;62916;50.044;15.938;2023-02-03T04:21:54;0.80;;;0.50;;
74465;SDS011;62916;50.044;15.938;2023-02-03T04:24:25;0.80;;;0.80;;
74465;SDS011;62916;50.044;15.938;2023-02-03T04:26:56;0.40;;;0.40;;
74465;SDS011;62916;50.044;15.938;2023-02-03T04:29:27;0.70;;;0.70;;
74465;SDS011;62916;50.044;15.938;2023-02-03T04:31:58;0.80;;;0.60;;
74465;SDS011;62916;50.044;15.938;2023-02-03T04:34:29;1.30;;;0.60;;
74465;SDS011;62916;50.044;15.938;2023-02-03T04:37:00;0.40;;;0.20;;
74465;SDS011;62916;50.044;15.938;2023-02-03T04:39:30;0.60;;;0.30;;
74465;SDS011;62916;50.044;15.938;2023-02-03T04:42:01;0.50;;;0.30;;
74465;SDS011;62916;50.044;15.938;2023-02-03T04:44:32;0.50;;;0.30;;
74465;SDS011;62916;50.044;15.938;2023-02-03T04:47:03;1.30;;;0.90;;
74465;SDS011;62916;50.044;15.938;2023-02-03T04:49:34;0.80;;;0.50;;
74465;SDS011;62916;50.044;15.938;2023-02-03T04:52:05;0.70;;;0.40;;
74465;SDS011;62916;50.044;15.938;2023-02-03T04:54:36;1.10;;;0.60;;
74465;SDS011;62916;50.044;15.938;2023-02-03T04:57:07;1.60;;;0.70;;
74465;SDS011;62916;50.044;15.938;2023-02-03T04:59:38;1.10;;;0.40;;
74465;SDS011;62916;50.044;15.938;2023-02-03T05:02:09;3.40;;;0.80;;
74465;SDS011;62916;50.044;15.938;2023-02-03T05:04:41;1.10;;;0.60;;
74465;SDS011;62916;50.044;15.938;2023-02-03T05:07:12;1.10;;;0.60;;
74465;SDS011;62916;50.044;15.938;2023-02-03T05:09:42;1.70;;;0.80;;
74465;SDS011;62916;50.044;15.938;2023-02-03T05:12:13;1.10;;;0.50;;
74465;SDS011;62916;50.044;15.938;2023-02-03T05:14:44;0.70;;;0.50;;
74465;SDS011;62916;50.044;15.938;2023-02-03T05:17:15;0.90;;;0.50;;
74465;SDS011;62916;50.044;15.938;2023-02-03T05:19:46;1.80;;;0.30;;
74465;SDS011;62916;50.044;15.938;2023-02-03T05:22:16;2.80;;;0.60;;
74465;SDS011;62916;50.044;15.938;2023-02-03T05:24:47;29.00;;;7.00;;
74465;SDS011;62916;50.044;15.938;2023-02-03T05:27:18;58.50;;;12.20;;
74465;SDS011;62916;50.044;15.938;2023-02-03T05:29:49;60.70;;;12.20;;
74465;SDS011;62916;50.044;15.938;2023-02-03T05:32:20;55.10;;;12.80;;
74465;SDS011;62916;50.044;15.938;2023-02-03T05:34:51;59.60;;;13.20;;
74465;SDS011;62916;50.044;15.938;2023-02-03T05:37:21;54.50;;;11.90;;
74465;SDS011;62916;50.044;15.938;2023-02-03T05:39:52;58.70;;;12.80;;
74465;SDS011;62916;50.044;15.938;2023-02-03T05:42:47;51.40;;;12.20;;
74465;SDS011;62916;50.044;15.938;2023-02-03T05:45:18;48.00;;;11.10;;
74465;SDS011;62916;50.044;15.938;2023-02-03T05:47:49;44.50;;;10.60;;
74465;SDS011;62916;50.044;15.938;2023-02-03T05:50:19;45.80;;;11.10;;
74465;SDS011;62916;50.044;15.938;2023-02-03T05:52:51;41.10;;;9.90;;
74465;SDS011;62916;50.044;15.938;2023-02-03T05:55:22;43.10;;;11.00;;
74465;SDS011;62916;50.044;15.938;2023-02-03T05:57:52;38.90;;;9.90;;
74465;SDS011;62916;50.044;15.938;2023-02-03T06:00:23;40.30;;;10.70;;
74465;SDS011;62916;50.044;15.938;2023-02-03T06:03:00;41.30;;;10.10;;
74465;SDS011;62916;50.044;15.938;2023-02-03T06:05:33;32.30;;;9.20;;
74465;SDS011;62916;50.044;15.938;2023-02-03T06:08:07;34.30;;;8.50;;
74465;SDS011;62916;50.044;15.938;2023-02-03T06:10:38;34.30;;;9.70;;
74465;SDS011;62916;50.044;15.938;2023-02-03T06:13:10;29.30;;;8.60;;
74465;SDS011;62916;50.044;15.938;2023-02-03T06:15:42;34.50;;;8.70;;
74465;SDS011;62916;50.044;15.938;2023-02-03T06:18:13;29.30;;;8.10;;
74465;SDS011;62916;50.044;15.938;2023-02-03T06:20:43;28.60;;;7.70;;
74465;SDS011;62916;50.044;15.938;2023-02-03T06:23:14;28.80;;;7.60;;
74465;SDS011;62916;50.044;15.938;2023-02-03T06:25:46;28.90;;;7.50;;
74465;SDS011;62916;50.044;15.938;2023-02-03T06:28:18;28.80;;;8.40;;
74465;SDS011;62916;50.044;15.938;2023-02-03T06:30:49;25.50;;;7.70;;
74465;SDS011;62916;50.044;15.938;2023-02-03T06:33:21;24.70;;;8.20;;
74465;SDS011;62916;50.044;15.938;2023-02-03T06:35:52;24.40;;;7.60;;
74465;SDS011;62916;50.044;15.938;2023-02-03T06:38:23;25.60;;;7.70;;
74465;SDS011;62916;50.044;15.938;2023-02-03T06:40:54;25.90;;;6.80;;
74465;SDS011;62916;50.044;15.938;2023-02-03T06:43:25;20.70;;;7.20;;
74465;SDS011;62916;50.044;15.938;2023-02-03T06:45:56;23.80;;;6.60;;
74465;SDS011;62916;50.044;15.938;2023-02-03T06:48:27;21.40;;;6.30;;
74465;SDS011;62916;50.044;15.938;2023-02-03T06:50:58;23.90;;;6.40;;
74465;SDS011;62916;50.044;15.938;2023-02-03T06:53:29;26.20;;;7.60;;
74465;SDS011;62916;50.044;15.938;2023-02-03T06:56:00;17.20;;;6.50;;
74465;SDS011;62916;50.044;15.938;2023-02-03T06:58:31;23.00;;;6.20;;
74465;SDS011;62916;50.044;15.938;2023-02-03T07:01:02;20.90;;;6.40;;
74465;SDS011;62916;50.044;15.938;2023-02-03T07:03:33;18.10;;;5.70;;
74465;SDS011;62916;50.044;15.938;2023-02-03T07:06:04;14.40;;;5.30;;
74465;SDS011;62916;50.044;15.938;2023-02-03T07:08:35;21.00;;;5.40;;
74465;SDS011;62916;50.044;15.938;2023-02-03T07:11:06;16.00;;;5.00;;
74465;SDS011;62916;50.044;15.938;2023-02-03T07:13:38;15.60;;;5.20;;
74465;SDS011;62916;50.044;15.938;2023-02-03T07:16:09;20.00;;;6.00;;
74465;SDS011;62916;50.044;15.938;2023-02-03T07:18:40;13.40;;;4.90;;
74465;SDS011;62916;50.044;15.938;2023-02-03T07:21:15;16.20;;;4.60;;
74465;SDS011;62916;50.044;15.938;2023-02-03T07:23:47;13.90;;;4.90;;
74465;SDS011;62916;50.044;15.938;2023-02-03T07:26:18;16.30;;;5.40;;
74465;SDS011;62916;50.044;15.938;2023-02-03T07:28:52;15.60;;;4.80;;
74465;SDS011;62916;50.044;15.938;2023-02-03T07:31:23;12.70;;;4.40;;
74465;SDS011;62916;50.044;15.938;2023-02-03T07:33:54;13.10;;;4.50;;
74465;SDS011;62916;50.044;15.938;2023-02-03T07:36:25;13.90;;;5.10;;
74465;SDS011;62916;50.044;15.938;2023-02-03T07:38:56;14.80;;;4.30;;
74465;SDS011;62916;50.044;15.938;2023-02-03T07:41:27;13.90;;;4.20;;
74465;SDS011;62916;50.044;15.938;2023-02-03T07:43:58;14.00;;;4.60;;
74465;SDS011;62916;50.044;15.938;2023-02-03T07:46:29;12.50;;;4.60;;
74465;SDS011;62916;50.044;15.938;2023-02-03T07:49:00;12.10;;;3.90;;
74465;SDS011;62916;50.044;15.938;2023-02-03T07:51:32;10.70;;;3.90;;
74465;SDS011;62916;50.044;15.938;2023-02-03T07:54:03;11.10;;;3.30;;
74465;SDS011;62916;50.044;15.938;2023-02-03T07:56:34;10.70;;;3.90;;
74465;SDS011;62916;50.044;15.938;2023-02-03T07:59:05;9.70;;;4.00;;
74465;SDS011;62916;50.044;15.938;2023-02-03T08:01:36;9.00;;;3.60;;
74465;SDS011;62916;50.044;15.938;2023-02-03T08:04:07;10.90;;;3.40;;
74465;SDS011;62916;50.044;15.938;2023-02-03T08:06:42;9.60;;;3.60;;
74465;SDS011;62916;50.044;15.938;2023-02-03T08:09:13;7.80;;;3.60;;
74465;SDS011;62916;50.044;15.938;2023-02-03T08:11:45;8.10;;;3.20;;
74465;SDS011;62916;50.044;15.938;2023-02-03T08:14:16;9.40;;;3.20;;
74465;SDS011;62916;50.044;15.938;2023-02-03T08:16:47;8.10;;;3.00;;
74465;SDS011;62916;50.044;15.938;2023-02-03T08:19:18;8.40;;;3.40;;
74465;SDS011;62916;50.044;15.938;2023-02-03T08:21:49;8.60;;;3.60;;
74465;SDS011;62916;50.044;15.938;2023-02-03T08:24:20;8.40;;;3.10;;
74465;SDS011;62916;50.044;15.938;2023-02-03T08:26:51;8.30;;;3.40;;
74465;SDS011;62916;50.044;15.938;2023-02-03T08:29:22;10.60;;;3.10;;
74465;SDS011;62916;50.044;15.938;2023-02-03T08:31:53;9.80;;;3.30;;
74465;SDS011;62916;50.044;15.938;2023-02-03T08:34:25;9.70;;;2.90;;
74465;SDS011;62916;50.044;15.938;2023-02-03T08:36:57;8.20;;;3.10;;
74465;SDS011;62916;50.044;15.938;2023-02-03T08:39:27;6.40;;;3.50;;
74465;SDS011;62916;50.044;15.938;2023-02-03T08:41:59;7.80;;;3.30;;
74465;SDS011;62916;50.044;15.938;2023-02-03T08:44:31;6.30;;;2.90;;
74465;SDS011;62916;50.044;15.938;2023-02-03T08:47:02;9.00;;;2.70;;
74465;SDS011;62916;50.044;15.938;2023-02-03T08:49:34;7.20;;;2.90;;
74465;SDS011;62916;50.044;15.938;2023-02-03T08:52:07;6.20;;;2.50;;
74465;SDS011;62916;50.044;15.938;2023-02-03T08:54:39;6.90;;;2.20;;
74465;SDS011;62916;50.044;15.938;2023-02-03T08:57:10;8.40;;;2.80;;
74465;SDS011;62916;50.044;15.938;2023-02-03T08:59:44;5.60;;;2.40;;
74465;SDS011;62916;50.044;15.938;2023-02-03T09:02:16;6.70;;;2.60;;
74465;SDS011;62916;50.044;15.938;2023-02-03T09:04:47;6.10;;;2.60;;
74465;SDS011;62916;50.044;15.938;2023-02-03T09:07:19;8.30;;;2.70;;
74465;SDS011;62916;50.044;15.938;2023-02-03T09:09:49;6.10;;;2.50;;
74465;SDS011;62916;50.044;15.938;2023-02-03T09:12:20;6.90;;;2.40;;
74465;SDS011;62916;50.044;15.938;2023-02-03T09:14:51;5.20;;;2.10;;
74465;SDS011;62916;50.044;15.938;2023-02-03T09:17:22;5.90;;;2.90;;
74465;SDS011;62916;50.044;15.938;2023-02-03T09:19:54;6.20;;;2.20;;
74465;SDS011;62916;50.044;15.938;2023-02-03T09:22:25;5.70;;;2.30;;
74465;SDS011;62916;50.044;15.938;2023-02-03T09:24:57;4.90;;;2.40;;
74465;SDS011;62916;50.044;15.938;2023-02-03T09:27:28;4.50;;;1.90;;
74465;SDS011;62916;50.044;15.938;2023-02-03T09:29:59;5.40;;;2.10;;
74465;SDS011;62916;50.044;15.938;2023-02-03T09:32:30;6.80;;;2.40;;
74465;SDS011;62916;50.044;15.938;2023-02-03T09:35:01;5.40;;;2.20;;
74465;SDS011;62916;50.044;15.938;2023-02-03T09:37:32;5.30;;;2.20;;
74465;SDS011;62916;50.044;15.938;2023-02-03T09:40:04;4.20;;;1.60;;
74465;SDS011;62916;50.044;15.938;2023-02-03T09:42:47;5.00;;;2.30;;
74465;SDS011;62916;50.044;15.938;2023-02-03T09:45:30;4.40;;;2.10;;
74465;SDS011;62916;50.044;15.938;2023-02-03T09:48:03;4.10;;;1.90;;
74465;SDS011;62916;50.044;15.938;2023-02-03T09:50:41;4.10;;;2.00;;
74465;SDS011;62916;50.044;15.938;2023-02-03T09:53:19;4.20;;;1.90;;
74465;SDS011;62916;50.044;15.938;2023-02-03T09:55:55;6.50;;;2.00;;
74465;SDS011;62916;50.044;15.938;2023-02-03T09:58:27;4.60;;;1.60;;
74465;SDS011;62916;50.044;15.938;2023-02-03T10:01:02;2.50;;;1.40;;
74465;SDS011;62916;50.044;15.938;2023-02-03T10:03:41;3.80;;;2.00;;
74465;SDS011;62916;50.044;15.938;2023-02-03T10:06:18;3.30;;;1.80;;
74465;SDS011;62916;50.044;15.938;2023-02-03T10:09:04;5.50;;;1.60;;
74465;SDS011;62916;50.044;15.938;2023-02-03T10:11:52;4.20;;;1.80;;
74465;SDS011;62916;50.044;15.938;2023-02-03T10:14:37;3.80;;;1.80;;
74465;SDS011;62916;50.044;15.938;2023-02-03T10:17:21;3.20;;;1.50;;
74465;SDS011;62916;50.044;15.938;2023-02-03T10:20:00;3.30;;;1.90;;
74465;SDS011;62916;50.044;15.938;2023-02-03T10:22:35;3.90;;;1.70;;
74465;SDS011;62916;50.044;15.938;2023-02-03T10:25:14;4.40;;;1.60;;
74465;SDS011;62916;50.044;15.938;2023-02-03T10:27:52;2.80;;;1.30;;
74465;SDS011;62916;50.044;15.938;2023-02-03T10:30:29;2.10;;;1.20;;
74465;SDS011;62916;50.044;15.938;2023-02-03T10:33:13;3.10;;;1.30;;
74465;SDS011;62916;50.044;15.938;2023-02-03T10:35:48;2.40;;;1.20;;
74465;SDS011;62916;50.044;15.938;2023-02-03T10:38:23;2.20;;;1.30;;
74465;SDS011;62916;50.044;15.938;2023-02-03T10:41:03;2.40;;;1.30;;
74465;SDS011;62916;50.044;15.938;2023-02-03T10:43:34;2.30;;;1.10;;
74465;SDS011;62916;50.044;15.938;2023-02-03T10:46:20;3.10;;;1.50;;
74465;SDS011;62916;50.044;15.938;2023-02-03T10:48:57;2.10;;;1.00;;
74465;SDS011;62916;50.044;15.938;2023-02-03T10:51:36;1.80;;;1.30;;
74465;SDS011;62916;50.044;15.938;2023-02-03T10:54:24;2.50;;;1.00;;
74465;SDS011;62916;50.044;15.938;2023-02-03T10:57:01;2.40;;;1.20;;
74465;SDS011;62916;50.044;15.938;2023-02-03T10:59:34;3.10;;;1.30;;
74465;SDS011;62916;50.044;15.938;2023-02-03T11:02:13;2.50;;;1.30;;
74465;SDS011;62916;50.044;15.938;2023-02-03T11:07:38;2.70;;;1.30;;
74465;SDS011;62916;50.044;15.938;2023-02-03T11:13:14;1.60;;;1.30;;
74465;SDS011;62916;50.044;15.938;2023-02-03T11:15:55;2.10;;;1.20;;
74465;SDS011;62916;50.044;15.938;2023-02-03T11:18:36;2.50;;;1.10;;
74465;SDS011;62916;50.044;15.938;2023-02-03T11:21:10;2.20;;;0.90;;
74465;SDS011;62916;50.044;15.938;2023-02-03T11:23:48;2.20;;;1.00;;
74465;SDS011;62916;50.044;15.938;2023-02-03T11:26:24;1.70;;;1.00;;
74465;SDS011;62916;50.044;15.938;2023-02-03T11:28:58;2.60;;;0.80;;
74465;SDS011;62916;50.044;15.938;2023-02-03T11:31:31;2.50;;;1.20;;
74465;SDS011;62916;50.044;15.938;2023-02-03T11:34:05;2.60;;;1.30;;
74465;SDS011;62916;50.044;15.938;2023-02-03T11:36:44;1.80;;;1.00;;
74465;SDS011;62916;50.044;15.938;2023-02-03T11:39:19;2.30;;;1.20;;
74465;SDS011;62916;50.044;15.938;2023-02-03T11:41:54;2.40;;;1.10;;
74465;SDS011;62916;50.044;15.938;2023-02-03T11:44:26;1.80;;;1.00;;
74465;SDS011;62916;50.044;15.938;2023-02-03T11:47:01;1.80;;;0.90;;
74465;SDS011;62916;50.044;15.938;2023-02-03T11:52:49;1.90;;;1.00;;
74465;SDS011;62916;50.044;15.938;2023-02-03T11:55:39;2.30;;;0.90;;
74465;SDS011;62916;50.044;15.938;2023-02-03T11:58:31;1.50;;;1.00;;
74465;SDS011;62916;50.044;15.938;2023-02-03T12:01:23;1.30;;;0.80;;
74465;SDS011;62916;50.044;15.938;2023-02-03T12:04:15;1.80;;;0.90;;
74465;SDS011;62916;50.044;15.938;2023-02-03T12:07:02;1.90;;;0.80;;
74465;SDS011;62916;50.044;15.938;2023-02-03T12:09:46;1.90;;;0.80;;
74465;SDS011;62916;50.044;15.938;2023-02-03T12:12:37;0.80;;;0.70;;
74465;SDS011;62916;50.044;15.938;2023-02-03T12:15:26;1.70;;;0.90;;
74465;SDS011;62916;50.044;15.938;2023-02-03T12:18:12;1.70;;;1.30;;
74465;SDS011;62916;50.044;15.938;2023-02-03T12:20:59;1.40;;;0.70;;
74465;SDS011;62916;50.044;15.938;2023-02-03T12:23:45;1.50;;;0.70;;
74465;SDS011;62916;50.044;15.938;2023-02-03T12:26:24;1.40;;;0.80;;
74465;SDS011;62916;50.044;15.938;2023-02-03T12:29:05;1.60;;;1.10;;
74465;SDS011;62916;50.044;15.938;2023-02-03T12:31:41;2.30;;;0.80;;
74465;SDS011;62916;50.044;15.938;2023-02-03T12:34:16;1.20;;;0.70;;
74465;SDS011;62916;50.044;15.938;2023-02-03T12:36:51;1.40;;;1.10;;
74465;SDS011;62916;50.044;15.938;2023-02-03T12:39:32;1.40;;;0.70;;
74465;SDS011;62916;50.044;15.938;2023-02-03T12:42:11;1.60;;;0.90;;
74465;SDS011;62916;50.044;15.938;2023-02-03T12:44:48;1.60;;;0.90;;
74465;SDS011;62916;50.044;15.938;2023-02-03T12:47:25;2.20;;;1.10;;
74465;SDS011;62916;50.044;15.938;2023-02-03T12:50:04;2.30;;;1.10;;
74465;SDS011;62916;50.044;15.938;2023-02-03T12:52:43;1.40;;;0.90;;
74465;SDS011;62916;50.044;15.938;2023-02-03T12:55:22;0.90;;;0.70;;
74465;SDS011;62916;50.044;15.938;2023-02-03T12:58:01;1.50;;;1.20;;
74465;SDS011;62916;50.044;15.938;2023-02-03T13:00:40;1.70;;;0.80;;
74465;SDS011;62916;50.044;15.938;2023-02-03T13:03:18;1.80;;;1.10;;
74465;SDS011;62916;50.044;15.938;2023-02-03T13:05:58;1.50;;;0.80;;
74465;SDS011;62916;50.044;15.938;2023-02-03T13:08:36;1.40;;;1.00;;
74465;SDS011;62916;50.044;15.938;2023-02-03T13:11:14;1.80;;;0.80;;
74465;SDS011;62916;50.044;15.938;2023-02-03T13:16:25;1.50;;;0.70;;
74465;SDS011;62916;50.044;15.938;2023-02-03T13:19:02;1.20;;;1.10;;
74465;SDS011;62916;50.044;15.938;2023-02-03T13:21:39;1.40;;;1.00;;
74465;SDS011;62916;50.044;15.938;2023-02-03T13:24:10;1.50;;;1.10;;
74465;SDS011;62916;50.044;15.938;2023-02-03T13:26:48;1.70;;;1.20;;
74465;SDS011;62916;50.044;15.938;2023-02-03T13:32:52;1.10;;;0.90;;
74465;SDS011;62916;50.044;15.938;2023-02-03T13:35:40;1.40;;;0.60;;
74465;SDS011;62916;50.044;15.938;2023-02-03T13:38:30;2.60;;;1.00;;
74465;SDS011;62916;50.044;15.938;2023-02-03T13:43:50;1.80;;;0.80;;
74465;SDS011;62916;50.044;15.938;2023-02-03T13:46:24;1.00;;;0.80;;
74465;SDS011;62916;50.044;15.938;2023-02-03T13:48:58;1.10;;;0.70;;
74465;SDS011;62916;50.044;15.938;2023-02-03T13:51:31;1.70;;;0.80;;
74465;SDS011;62916;50.044;15.938;2023-02-03T13:54:04;1.50;;;0.80;;
74465;SDS011;62916;50.044;15.938;2023-02-03T13:56:40;0.90;;;0.70;;
74465;SDS011;62916;50.044;15.938;2023-02-03T13:59:27;1.30;;;0.90;;
74465;SDS011;62916;50.044;15.938;2023-02-03T14:05:09;1.70;;;0.80;;
74465;SDS011;62916;50.044;15.938;2023-02-03T14:23:44;1.70;;;1.00;;
74465;SDS011;62916;50.044;15.938;2023-02-03T14:26:40;0.90;;;0.80;;
74465;SDS011;62916;50.044;15.938;2023-02-03T14:29:24;0.70;;;0.70;;
74465;SDS011;62916;50.044;15.938;2023-02-03T14:31:57;1.30;;;1.10;;
74465;SDS011;62916;50.044;15.938;2023-02-03T14:34:37;1.10;;;1.00;;
74465;SDS011;62916;50.044;15.938;2023-02-03T14:37:10;1.80;;;1.00;;
74465;SDS011;62916;50.044;15.938;2023-02-03T14:39:49;1.00;;;0.90;;
74465;SDS011;62916;50.044;15.938;2023-02-03T14:46:07;1.40;;;1.00;;
74465;SDS011;62916;50.044;15.938;2023-02-03T14:48:53;1.10;;;0.80;;
74465;SDS011;62916;50.044;15.938;2023-02-03T14:51:48;1.80;;;1.30;;
74465;SDS011;62916;50.044;15.938;2023-02-03T14:54:34;1.30;;;1.10;;
74465;SDS011;62916;50.044;15.938;2023-02-03T14:57:25;2.80;;;1.00;;
74465;SDS011;62916;50.044;15.938;2023-02-03T15:00:05;2.70;;;1.40;;
74465;SDS011;62916;50.044;15.938;2023-02-03T15:08:45;1.80;;;1.00;;
74465;SDS011;62916;50.044;15.938;2023-02-03T15:11:30;2.60;;;1.00;;
74465;SDS011;62916;50.044;15.938;2023-02-03T15:14:17;2.10;;;1.20;;
74465;SDS011;62916;50.044;15.938;2023-02-03T15:16:51;2.50;;;1.20;;
74465;SDS011;62916;50.044;15.938;2023-02-03T15:19:30;4.20;;;1.60;;
74465;SDS011;62916;50.044;15.938;2023-02-03T15:22:15;2.80;;;1.30;;
74465;SDS011;62916;50.044;15.938;2023-02-03T15:24:55;3.10;;;0.90;;
74465;SDS011;62916;50.044;15.938;2023-02-03T15:27:27;2.00;;;1.20;;
74465;SDS011;62916;50.044;15.938;2023-02-03T15:30:00;2.10;;;1.00;;
74465;SDS011;62916;50.044;15.938;2023-02-03T15:32:45;1.50;;;1.10;;
74465;SDS011;62916;50.044;15.938;2023-02-03T15:35:23;2.40;;;1.30;;
74465;SDS011;62916;50.044;15.938;2023-02-03T15:37:59;3.30;;;1.10;;
74465;SDS011;62916;50.044;15.938;2023-02-03T15:40:36;2.30;;;1.10;;
74465;SDS011;62916;50.044;15.938;2023-02-03T15:43:13;3.00;;;1.10;;
74465;SDS011;62916;50.044;15.938;2023-02-03T15:45:53;2.90;;;1.30;;
74465;SDS011;62916;50.044;15.938;2023-02-03T15:48:33;2.10;;;1.30;;
74465;SDS011;62916;50.044;15.938;2023-02-03T15:51:09;3.40;;;1.10;;
74465;SDS011;62916;50.044;15.938;2023-02-03T15:53:50;3.30;;;1.50;;
74465;SDS011;62916;50.044;15.938;2023-02-03T15:56:27;4.00;;;1.40;;
74465;SDS011;62916;50.044;15.938;2023-02-03T15:59:04;4.40;;;1.20;;
74465;SDS011;62916;50.044;15.938;2023-02-03T16:01:48;2.60;;;0.90;;
74465;SDS011;62916;50.044;15.938;2023-02-03T16:04:19;3.80;;;1.20;;
74465;SDS011;62916;50.044;15.938;2023-02-03T16:06:52;3.50;;;1.10;;
74465;SDS011;62916;50.044;15.938;2023-02-03T16:09:39;2.20;;;1.30;;
74465;SDS011;62916;50.044;15.938;2023-02-03T16:12:21;2.70;;;1.20;;